Mannsville, Oklahoma
Current Conditions -  °F | °C
As of 11:55 AM on Thursday 30 Oct 2014 (Local Time) from KADM Reporting Station
Clear Clear  
Wind Chill: 70°   Ceiling: Unl
Heat Index: 70°   Visibility: 10mi
Dew Point: 52°   Wind: 10mph
Humidity: 53%   Direction: 170°S
Pressure: 30.15"   Gusts: NA
Location:  34.19°N, 96.88°W
Report Text: KADM 301655Z 17009KT 10SM SCT 090 21/11 A3015
Loading
Personal Weather Stations






























Interactive Weather Map
Tropical Storm Tracking
New forecast layout! Learn more

10-Day Weather Forecast

Advertisements
Track Severe Weather on mobile